Terminal Aerodrome Forecast
Issued by NWS

Home | Current Version | Previous Version | Text Only | Print | Product List | Glossary On
Versions: 1 2 3 4 5 6 7 8 9 10 11 12 13 14 15 16 17 18 19 20 21
275
FTUS43 KPAH 190300 AAA
TAFCGI
TAF AMD
KCGI 190300Z 1903/1924 18008KT P6SM OVC025
     FM190800 18012KT 4SM -SHRA BR SCT009 OVC015
      TEMPO 1908/1910 2SM SHRA BR OVC009
     FM191300 19014G24KT P6SM BKN015
     FM191600 20017G29KT P6SM BKN030=

USA.gov is the U.S. government's official web portal to all federal, state and local government web resources and services.